Araguaina, Brazil
Current Conditions -  °F | °C
As of 9:00 PM on Friday 21 Nov 2014 (Local Time) from SBIZ Reporting Station
Few Clouds Few Clouds  
Wind Chill: 82°   Ceiling: Unl
Heat Index: 91°   Visibility: 6mi
Dew Point: 77°   Wind: 3mph
Humidity: 84%   Direction: 130°SE
Pressure: 29.8"   Gusts: NA
Location:  7.19°S, 48.21°W
Report Text: SBIZ 220000Z 13003KT 9999 FEW030 28/25 Q1009
Loading
Personal Weather Stations






























Interactive Weather Map New forecast layout! Learn more

10-Day Weather Forecast

Advertisements
Track Severe Weather on mobile